Time;durP1;ratioP1;P1;durP2;ratioP2;P2;SDS_P1;SDS_P2;PMS_P1;PMS_P2;Temp;Humidity;BMP_temperature;BMP_pressure;BME280_temperature;BME280_humidity;BME280_pressure;Samples;Min_cycle;Max_cycle;Signal;HPM_P1;HPM_P2
2022/02/12 00:00:27;;;;;;;5.90;4.70;;;1.60;81.40;;;-0.08;83.35;99637.94;5038026;28;20439;-78
2022/02/12 00:02:56;;;;;;;13.30;8.47;;;1.50;81.40;;;-0.01;83.36;99628.59;5035302;28;20446;-79
2022/02/12 00:05:25;;;;;;;13.93;7.03;;;1.40;82.10;;;-0.22;83.38;99630.13;5034097;28;20926;-78
2022/02/12 00:07:52;;;;;;;12.97;6.37;;;1.30;81.70;;;-0.49;84.17;99597.38;5034932;28;20436;-78
2022/02/12 00:10:19;;;;;;;9.33;5.37;;;1.20;83.20;;;-0.09;83.32;99625.63;5032880;28;20522;-78
2022/02/12 00:12:47;;;;;;;11.23;5.33;;;1.30;83.40;;;-0.13;83.03;99634.78;4998026;28;20495;-78
2022/02/12 00:15:15;;;;;;;12.33;5.60;;;1.30;82.20;;;-0.17;83.44;99630.63;5014187;28;20444;-77
2022/02/12 00:17:43;;;;;;;6.60;4.90;;;1.30;82.30;;;-0.36;83.72;99628.41;4997136;28;20446;-79
2022/02/12 00:20:13;;;;;;;12.40;5.37;;;1.20;82.80;;;-0.61;85.26;99628.28;4996380;28;20436;-77
2022/02/12 00:22:41;;;;;;;10.13;5.10;;;0.90;83.30;;;-0.77;86.23;99620.47;5014640;28;20543;-79
2022/02/12 00:25:09;;;;;;;12.20;5.67;;;0.80;85.40;;;-1.76;87.01;99489.09;5014835;28;20447;-80
2022/02/12 00:27:36;;;;;;;16.33;6.60;;;0.60;87.20;;;-1.08;87.82;99605.78;4997060;28;20527;-71
2022/02/12 00:30:04;;;;;;;9.97;5.97;;;0.50;88.80;;;-1.18;88.85;99616.97;4995986;28;20482;-71
2022/02/12 00:32:32;;;;;;;7.63;4.97;;;0.40;90.00;;;-1.05;88.68;99616.19;5013767;28;20567;-71
2022/02/12 00:34:59;;;;;;;9.00;5.17;;;0.40;90.80;;;-1.08;88.93;99614.56;5014042;28;20471;-71
2022/02/12 00:37:29;;;;;;;16.17;6.10;;;0.50;90.80;;;-1.17;89.06;99612.53;5014009;28;20864;-71
2022/02/12 00:39:56;;;;;;;8.33;5.60;;;0.40;90.80;;;-1.21;89.23;99616.34;4996379;28;20479;-72
2022/02/12 00:42:23;;;;;;;10.50;5.67;;;0.40;91.10;;;-1.25;89.46;99609.53;4998133;28;20483;-71
2022/02/12 00:44:51;;;;;;;7.03;4.77;;;0.30;91.50;;;-1.28;90.24;99615.91;5000427;28;20826;-72
2022/02/12 00:47:18;;;;;;;9.87;5.10;;;0.30;91.90;;;-1.35;90.32;99603.97;4999731;28;20874;-71
2022/02/12 00:49:45;;;;;;;7.93;5.03;;;0.30;92.30;;;-1.33;90.23;99618.84;5017944;28;20452;-69
2022/02/12 00:52:12;;;;;;;12.23;4.70;;;0.30;92.40;;;-1.38;89.94;99604.19;5017630;28;20477;-71
2022/02/12 00:54:43;;;;;;;9.57;5.60;;;0.20;92.30;;;-1.45;90.55;99593.97;5016911;28;20439;-73
2022/02/12 00:57:10;;;;;;;9.87;4.60;;;0.20;92.30;;;-1.49;90.82;99602.25;5017888;28;20571;-71
2022/02/12 00:59:37;;;;;;;9.03;4.90;;;0.20;92.50;;;-1.53;90.74;99598.94;4999978;28;20443;-71
2022/02/12 01:02:05;;;;;;;10.00;4.60;;;0.10;92.70;;;-1.57;91.14;99597.44;5017834;28;20474;-72
2022/02/12 01:04:33;;;;;;;10.90;5.00;;;0.10;92.80;;;-1.60;90.66;99598.47;5001399;28;20444;-78
2022/02/12 01:07:00;;;;;;;8.10;4.80;;;0.00;92.80;;;-1.69;90.82;99583.16;5022720;28;20444;-78
2022/02/12 01:09:27;;;;;;;7.30;4.53;;;0.00;92.90;;;-1.72;91.08;99589.50;5035279;28;20435;-77
2022/02/12 01:11:55;;;;;;;15.00;5.00;;;0.00;93.10;;;-1.62;91.02;99580.94;5018629;28;20539;-78
2022/02/12 01:14:22;;;;;;;14.33;5.03;;;0.00;93.60;;;-1.67;91.31;99588.34;5021834;28;20505;-77
2022/02/12 01:16:49;;;;;;;12.47;5.00;;;-0.10;93.30;;;-1.77;91.58;99578.34;5017614;28;20456;-78
2022/02/12 01:19:16;;;;;;;8.60;4.70;;;-0.10;93.50;;;-1.83;91.73;99583.16;5017803;28;20471;-79
2022/02/12 01:21:44;;;;;;;16.07;5.20;;;-0.20;93.80;;;-1.89;92.65;99584.44;5001618;28;20878;-79
2022/02/12 01:24:11;;;;;;;7.23;4.30;;;-0.30;94.30;;;-1.94;92.24;99581.22;5001341;28;20478;-78
2022/02/12 01:26:38;;;;;;;13.30;5.77;;;-0.30;94.90;;;-1.98;92.80;99585.00;5000335;28;20533;-77
2022/02/12 01:29:06;;;;;;;21.10;5.60;;;-0.40;95.60;;;-2.01;93.06;99578.97;5017964;28;20470;-78
2022/02/12 01:31:34;;;;;;;9.03;4.67;;;-0.40;96.30;;;-2.01;93.08;99584.25;5018024;28;20462;-78
2022/02/12 01:34:00;;;;;;;12.93;5.30;;;-0.40;96.40;;;-2.02;93.13;99569.31;5000047;28;20847;-79
2022/02/12 01:36:28;;;;;;;9.30;5.87;;;-0.40;97.20;;;-2.08;93.07;99561.72;5017437;28;20509;-80
2022/02/12 01:38:55;;;;;;;6.10;4.53;;;-0.40;96.70;;;-2.09;93.38;99567.97;5019364;28;20455;-74
2022/02/12 01:41:23;;;;;;;12.40;5.90;;;-0.40;96.70;;;-2.03;92.94;99562.31;5007738;28;20432;-83
2022/02/12 01:43:50;;;;;;;9.20;5.80;;;-0.40;97.40;;;-2.11;93.09;99564.59;5023244;28;20518;-81
2022/02/12 01:46:19;;;;;;;10.90;5.40;;;-0.50;96.30;;;-2.05;93.07;99569.47;5025421;28;20474;-81
2022/02/12 01:48:46;;;;;;;11.27;5.93;;;-0.50;98.20;;;-2.18;92.93;99568.56;5006102;28;20538;-80
2022/02/12 01:51:13;;;;;;;11.20;5.70;;;-0.60;96.50;;;-2.30;93.56;99573.69;5007158;28;20443;-81
2022/02/12 01:53:40;;;;;;;10.17;5.13;;;-0.70;97.20;;;-2.38;93.72;99573.28;5003547;28;20432;-83
2022/02/12 01:56:08;;;;;;;9.60;5.47;;;-0.80;98.50;;;-2.49;94.56;99558.06;5003387;28;20469;-82
2022/02/12 01:58:35;;;;;;;8.50;6.20;;;-0.80;99.90;;;-2.48;95.11;99575.66;5004375;28;20511;-82
2022/02/12 02:01:02;;;;;;;10.00;5.57;;;-0.90;99.90;;;-2.58;95.17;99554.19;5020139;28;20454;-83
2022/02/12 02:03:30;;;;;;;11.63;5.30;;;-0.90;99.90;;;-2.57;95.46;99558.53;5019586;28;20522;-83
2022/02/12 02:05:59;;;;;;;9.10;6.83;;;-1.00;99.90;;;-2.51;94.97;99561.75;5018363;28;20436;-83
2022/02/12 02:08:28;;;;;;;8.87;5.30;;;-1.00;99.90;;;-2.35;94.08;99559.03;5018075;28;20450;-82
2022/02/12 02:10:55;;;;;;;16.10;5.70;;;-0.90;99.90;;;-2.42;93.45;99561.19;5001139;28;20439;-82
2022/02/12 02:13:24;;;;;;;13.23;6.00;;;-0.90;99.90;;;-2.53;94.66;99568.94;5000032;28;20546;-82
2022/02/12 02:15:51;;;;;;;9.90;5.47;;;-1.00;99.90;;;-2.66;95.00;99561.72;5018218;28;20435;-83
2022/02/12 02:18:19;;;;;;;9.50;5.63;;;-1.00;99.90;;;-2.57;95.37;99563.84;5000501;28;20471;-83
2022/02/12 02:20:47;;;;;;;7.43;5.87;;;-1.10;99.90;;;-2.54;94.55;99569.88;4999785;28;20531;-82
2022/02/12 02:23:15;;;;;;;14.30;6.60;;;-1.10;99.90;;;-2.39;94.04;99578.69;5000024;28;20440;-83
2022/02/12 02:25:42;;;;;;;14.83;6.20;;;-1.00;99.90;;;-2.39;93.65;99582.19;4999565;28;20444;-83
2022/02/12 02:28:09;;;;;;;9.10;5.40;;;-0.90;99.90;;;-2.30;93.72;99570.16;4999667;28;20835;-82
2022/02/12 02:30:37;;;;;;;11.77;5.50;;;-0.90;99.90;;;-2.25;93.44;99572.53;5018151;28;20498;-81
2022/02/12 02:33:04;;;;;;;15.17;6.10;;;-0.80;99.90;;;-2.46;93.50;99565.81;5001426;28;20467;-82
2022/02/12 02:35:31;;;;;;;7.80;5.80;;;-0.90;97.50;;;-2.68;95.14;99571.56;5006810;28;20466;-81
2022/02/12 02:38:07;;;;;;;10.53;6.50;;;-1.00;98.80;;;-2.81;96.39;99570.59;5029505;28;20550;-81
2022/02/12 02:40:36;;;;;;;16.43;7.13;;;-1.10;99.90;;;-2.88;96.38;99581.56;5021295;28;20441;-81
2022/02/12 02:43:03;;;;;;;10.93;5.93;;;-1.20;99.90;;;-2.80;96.70;99567.03;4999919;28;21012;-80
2022/02/12 02:45:31;;;;;;;14.83;7.03;;;-1.10;99.90;;;-2.72;96.21;99557.69;5017424;28;20977;-82
2022/02/12 02:48:03;;;;;;;13.03;6.37;;;-1.00;99.90;;;-2.72;95.69;99559.47;5000078;28;20923;-81
2022/02/12 02:56:07;;;;;;;15.07;6.93;;;-1.20;99.90;;;-2.67;95.58;99561.84;5001847;28;20447;-84
2022/02/12 02:58:37;;;;;;;11.87;6.03;;;-1.20;99.90;;;-2.75;95.65;99575.53;5000349;28;20938;-83
2022/02/12 03:01:07;;;;;;;11.80;6.47;;;-1.20;99.90;;;-3.16;95.84;99519.72;5021060;28;20522;-82
2022/02/12 03:03:34;;;;;;;8.47;5.03;;;-1.20;99.90;;;-2.81;96.38;99557.38;5008666;28;20435;-83
2022/02/12 03:06:01;;;;;;;15.00;7.43;;;-1.20;99.90;;;-2.90;96.83;99561.41;5017722;28;20439;-83
2022/02/12 03:08:29;;;;;;;12.90;7.13;;;-1.30;99.90;;;-2.97;97.08;99563.56;5017633;28;20786;-83
2022/02/12 03:10:57;;;;;;;15.63;7.20;;;-1.40;99.90;;;-3.01;97.63;99560.28;5018178;28;20465;-83
2022/02/12 03:13:25;;;;;;;10.47;7.50;;;-1.40;99.90;;;-2.99;98.34;99573.41;4998975;28;20475;-82
2022/02/12 03:15:52;;;;;;;13.23;6.70;;;-1.30;99.90;;;-2.94;98.01;99568.72;4998784;28;20797;-81
2022/02/12 03:18:20;;;;;;;12.73;7.40;;;-1.30;99.90;;;-2.93;97.67;99573.06;5015434;28;20776;-82
2022/02/12 03:20:47;;;;;;;12.50;6.70;;;-1.30;99.90;;;-2.77;97.04;99572.97;5016574;28;20435;-81
2022/02/12 03:23:14;;;;;;;12.13;5.70;;;-1.30;99.90;;;-2.99;95.38;99533.72;5019050;28;20439;-83
2022/02/12 03:25:41;;;;;;;13.77;7.03;;;-1.20;99.90;;;-2.69;94.75;99579.63;5008649;28;20501;-83
2022/02/12 03:28:08;;;;;;;10.53;6.77;;;-1.20;99.90;;;-2.60;94.36;99579.91;5018763;28;20443;-83
2022/02/12 03:30:41;;;;;;;13.97;6.50;;;-1.10;99.90;;;-2.68;93.89;99555.69;5004187;28;20482;-84
2022/02/12 03:33:09;;;;;;;9.30;5.77;;;-1.10;99.90;;;-2.58;93.31;99572.72;5020620;28;20498;-83
2022/02/12 03:35:37;;;;;;;9.50;6.33;;;-1.00;98.50;;;-2.81;93.36;99570.59;5000155;28;20757;-83
2022/02/12 03:38:10;;;;;;;13.13;6.13;;;-1.10;97.40;;;-2.88;94.80;99576.25;5017906;28;20506;-82
2022/02/12 03:40:40;;;;;;;8.00;5.83;;;-1.20;99.90;;;-2.84;94.34;99566.34;5016701;28;20498;-79
2022/02/12 03:43:08;;;;;;;14.83;6.50;;;-1.30;99.90;;;-2.98;94.75;99567.16;5016162;28;20443;-81
2022/02/12 03:45:37;;;;;;;17.03;6.63;;;-1.40;99.90;;;-2.97;95.05;99555.63;5015331;28;20542;-81
2022/02/12 03:48:06;;;;;;;12.13;6.17;;;-1.30;99.90;;;-2.82;95.35;99566.25;5015871;28;20531;-79
2022/02/12 03:50:34;;;;;;;16.63;6.47;;;-1.30;99.90;;;-2.91;94.94;99565.88;4998898;28;20509;-80
2022/02/12 03:53:06;;;;;;;11.53;7.10;;;-1.30;99.90;;;-2.79;95.57;99568.75;4998618;28;20465;-80
2022/02/12 03:55:37;;;;;;;14.23;6.77;;;-1.20;99.90;;;-2.74;94.69;99566.66;4999313;28;20428;-82
2022/02/12 03:58:05;;;;;;;12.13;6.20;;;-1.10;99.90;;;-2.82;95.29;99564.47;5016956;28;20435;-82
2022/02/12 04:00:34;;;;;;;10.73;6.30;;;-1.10;99.90;;;-2.79;95.13;99574.03;5014767;28;20447;-81
2022/02/12 04:03:02;;;;;;;11.27;6.13;;;-1.20;99.90;;;-2.78;94.79;99576.56;4998865;28;20443;-81
2022/02/12 04:05:30;;;;;;;14.73;7.00;;;-1.20;99.90;;;-2.83;95.90;99575.13;5015942;28;20504;-80
2022/02/12 04:07:58;;;;;;;11.90;6.40;;;-1.20;99.90;;;-2.89;95.94;99569.28;5017488;28;20482;-81
2022/02/12 04:10:25;;;;;;;12.90;6.90;;;-1.20;99.90;;;-2.91;95.65;99555.28;5017771;28;20501;-81
2022/02/12 04:12:52;;;;;;;12.40;6.20;;;-1.20;99.90;;;-2.86;96.39;99557.66;5017747;28;20467;-81
2022/02/12 04:15:21;;;;;;;11.33;6.70;;;-1.20;99.90;;;-2.95;96.16;99563.50;4999409;28;20450;-81
2022/02/12 04:17:48;;;;;;;12.83;7.03;;;-1.20;99.90;;;-3.27;96.09;99503.63;5015761;28;20428;-81
2022/02/12 04:20:19;;;;;;;7.63;6.40;;;-1.20;99.90;;;-3.01;96.54;99560.28;5016984;28;20522;-80
2022/02/12 04:22:47;;;;;;;9.33;6.70;;;-1.30;99.90;;;-3.43;96.26;99511.63;5022958;28;20435;-81
2022/02/12 04:25:16;;;;;;;11.87;6.70;;;-1.40;99.90;;;-3.16;96.34;99562.03;4998534;28;20847;-81
2022/02/12 04:27:45;;;;;;;10.63;6.07;;;-1.40;99.90;;;-3.27;97.03;99553.84;4998956;28;20645;-81
2022/02/12 04:30:14;;;;;;;9.80;6.30;;;-1.60;99.90;;;-3.37;97.05;99547.41;4998663;28;20527;-80
2022/02/12 04:32:42;;;;;;;11.40;6.27;;;-1.70;99.90;;;-3.31;97.47;99555.84;5000354;28;20464;-82
2022/02/12 04:35:12;;;;;;;13.20;7.40;;;-1.70;99.90;;;-3.30;97.22;99546.97;5016609;28;20479;-83
2022/02/12 04:37:41;;;;;;;10.03;6.37;;;-1.60;99.90;;;-3.25;97.82;99548.50;4998433;28;20510;-82
2022/02/12 04:40:10;;;;;;;17.57;7.40;;;-1.50;99.90;;;-3.22;97.14;99535.94;5016012;28;20570;-82
2022/02/12 04:42:37;;;;;;;13.63;7.17;;;-1.50;99.90;;;-3.18;97.01;99537.47;5015075;28;20479;-80
2022/02/12 04:45:05;;;;;;;11.60;6.63;;;-1.50;99.90;;;-3.20;96.62;99549.94;5014587;28;20440;-81
2022/02/12 04:47:33;;;;;;;10.33;7.23;;;-1.50;99.90;;;-3.24;97.43;99548.41;4996395;28;20527;-80
2022/02/12 04:50:00;;;;;;;14.93;7.17;;;-1.50;99.90;;;-3.27;97.00;99544.16;4997259;28;20522;-82
2022/02/12 04:52:27;;;;;;;11.03;7.17;;;-1.60;99.90;;;-3.32;97.03;99542.72;5016342;28;20496;-79
2022/02/12 04:54:55;;;;;;;10.93;7.00;;;-1.60;99.90;;;-3.44;97.47;99546.91;5031349;28;20470;-80
2022/02/12 04:57:22;;;;;;;13.90;7.57;;;-1.70;99.90;;;-3.22;97.35;99540.38;5014693;28;20443;-79
2022/02/12 04:59:49;;;;;;;9.87;6.30;;;-1.60;99.90;;;-3.28;96.50;99552.16;5003614;28;20550;-80
2022/02/12 05:02:16;;;;;;;12.63;6.97;;;-1.60;99.90;;;-3.50;96.82;99558.69;5000992;28;20567;-82
2022/02/12 05:04:43;;;;;;;9.57;6.57;;;-1.70;99.90;;;-3.58;97.08;99555.63;4997526;28;20539;-80
2022/02/12 05:07:10;;;;;;;15.83;7.50;;;-1.90;99.90;;;-3.46;96.78;99554.09;5014446;28;20526;-80
2022/02/12 05:09:38;;;;;;;13.57;7.33;;;-1.80;99.90;;;-3.44;96.79;99545.13;5014134;28;20451;-80
2022/02/12 05:12:08;;;;;;;19.27;7.40;;;-1.80;99.90;;;-3.42;96.62;99552.97;5014237;28;20465;-80
2022/02/12 05:14:35;;;;;;;13.10;7.43;;;-1.80;99.90;;;-3.46;96.38;99543.53;4996448;28;20486;-80
2022/02/12 05:17:04;;;;;;;17.00;7.30;;;-1.80;99.90;;;-3.57;96.67;99546.75;5014308;28;20995;-80
2022/02/12 05:19:32;;;;;;;12.93;6.73;;;-1.80;99.90;;;-3.57;96.83;99541.47;4996137;28;20461;-81
2022/02/12 05:21:59;;;;;;;14.17;7.10;;;-1.90;99.90;;;-3.70;96.81;99550.13;4996989;28;20946;-81
2022/02/12 05:24:26;;;;;;;10.00;6.40;;;-2.00;99.90;;;-3.66;96.91;99544.66;5013964;28;20532;-81
2022/02/12 05:26:53;;;;;;;13.30;7.27;;;-2.00;99.90;;;-3.82;96.90;99532.31;5012723;28;20778;-80
2022/02/12 05:29:21;;;;;;;15.23;7.37;;;-2.10;99.90;;;-3.86;97.36;99533.44;4997828;28;20974;-80
2022/02/12 05:31:48;;;;;;;13.43;6.27;;;-2.10;99.90;;;-4.05;97.77;99537.06;4999624;28;20458;-82
2022/02/12 05:34:15;;;;;;;9.73;6.10;;;-2.30;99.90;;;-3.96;98.69;99537.50;5017487;28;20566;-81
2022/02/12 05:36:42;;;;;;;10.40;6.73;;;-2.30;99.90;;;-3.99;98.53;99533.25;5018221;28;20461;-81
2022/02/12 05:39:10;;;;;;;9.97;6.50;;;-2.30;99.90;;;-4.14;98.50;99527.03;5017427;28;20522;-81
2022/02/12 05:41:37;;;;;;;7.57;6.37;;;-2.40;99.90;;;-4.37;99.55;99517.75;5000785;28;20451;-82
2022/02/12 05:44:06;;;;;;;14.70;6.13;;;-2.50;99.90;;;-4.32;99.83;99523.59;5000440;28;20443;-81
2022/02/12 05:46:35;;;;;;;12.83;6.23;;;-2.60;99.90;;;-4.02;99.13;99518.44;5018041;28;20431;-82
2022/02/12 05:49:04;;;;;;;8.03;6.20;;;-2.40;99.90;;;-4.05;97.85;99510.66;5002191;28;20526;-78
2022/02/12 05:51:31;;;;;;;11.23;5.80;;;-2.40;99.90;;;-4.11;98.02;99516.31;5021297;28;20511;-80
2022/02/12 05:54:00;;;;;;;13.37;6.60;;;-2.40;99.90;;;-3.99;97.87;99515.63;5025660;28;20467;-80
2022/02/12 05:56:27;;;;;;;14.93;6.80;;;-2.30;99.90;;;-3.96;97.64;99511.94;5031168;28;20818;-80
2022/02/12 05:58:55;;;;;;;19.17;6.80;;;-2.30;99.90;;;-3.84;97.19;99502.50;5026146;28;20475;-81
2022/02/12 06:01:22;;;;;;;12.83;6.93;;;-2.20;99.90;;;-3.94;97.34;99496.03;5020766;28;20444;-79
2022/02/12 06:03:50;;;;;;;14.97;7.00;;;-2.20;99.90;;;-3.92;97.50;99500.28;5001938;28;20435;-81
2022/02/12 06:06:18;;;;;;;20.27;7.90;;;-2.20;99.90;;;-3.89;97.81;99491.31;5018062;28;20518;-81
2022/02/12 06:08:47;;;;;;;10.37;7.03;;;-2.20;99.90;;;-3.88;97.50;99503.59;5017178;28;20439;-81
2022/02/12 06:11:14;;;;;;;16.10;7.60;;;-2.20;99.90;;;-3.86;97.78;99499.09;5017444;28;20442;-81
2022/02/12 06:13:41;;;;;;;11.90;7.97;;;-2.20;99.90;;;-3.89;98.16;99499.25;5017666;28;20471;-81
2022/02/12 06:16:08;;;;;;;14.80;9.10;;;-2.20;99.90;;;-3.94;98.20;99488.97;5000368;28;20840;-80
2022/02/12 06:18:35;;;;;;;17.20;8.30;;;-2.20;99.90;;;-3.94;98.65;99490.75;5016902;28;20924;-80
2022/02/12 06:21:06;;;;;;;16.70;9.23;;;-2.20;99.90;;;-3.99;98.51;99486.56;5016909;28;20526;-81
2022/02/12 06:23:35;;;;;;;15.37;7.40;;;-2.30;99.90;;;-3.96;98.88;99493.44;5016594;28;20466;-80
2022/02/12 06:26:03;;;;;;;16.13;9.43;;;-2.30;99.90;;;-3.80;98.47;99485.53;4998880;28;20837;-77
2022/02/12 06:28:30;;;;;;;21.03;10.57;;;-2.20;99.90;;;-3.78;98.88;99491.56;5016548;28;20467;-80
2022/02/12 06:30:57;;;;;;;17.47;10.57;;;-2.10;99.90;;;-3.72;98.59;99495.66;4983349;28;20915;-78
2022/02/12 06:33:24;;;;;;;26.67;11.10;;;-2.00;99.90;;;-3.79;98.83;99500.44;5016423;28;20549;-82
2022/02/12 06:35:51;;;;;;;17.53;10.20;;;-2.00;99.90;;;-3.69;99.43;99492.81;5016617;28;20522;-82
2022/02/12 06:38:20;;;;;;;16.07;9.10;;;-2.00;99.90;;;-3.68;99.23;99491.06;5016420;28;20447;-82
2022/02/12 06:40:47;;;;;;;19.13;10.50;;;-1.90;99.90;;;-3.62;99.14;99486.25;5014759;28;20467;-81
2022/02/12 06:43:14;;;;;;;16.93;9.00;;;-1.90;99.90;;;-3.58;99.01;99489.56;4998794;28;20506;-80
2022/02/12 06:45:41;;;;;;;14.80;8.43;;;-1.90;99.90;;;-3.73;98.99;99484.22;4998425;28;20535;-80
2022/02/12 06:48:09;;;;;;;32.27;10.63;;;-1.90;99.90;;;-3.65;98.77;99490.88;4997992;28;20530;-80
2022/02/12 06:50:36;;;;;;;11.67;8.03;;;-1.90;99.90;;;-3.59;98.88;99487.84;5015788;28;20439;-79
2022/02/12 06:53:03;;;;;;;23.93;10.17;;;-1.90;99.90;;;-3.68;99.50;99486.59;4998167;28;20463;-80
2022/02/12 06:55:31;;;;;;;17.47;7.70;;;-2.00;99.90;;;-3.75;99.35;99475.53;5015650;28;20454;-85
2022/02/12 06:57:58;;;;;;;13.67;8.43;;;-1.90;99.90;;;-3.70;99.21;99478.78;5016037;28;20472;-80
2022/02/12 07:00:25;;;;;;;10.97;8.10;;;-2.00;99.90;;;-3.60;99.17;99487.03;4997573;28;20436;-78
2022/02/12 07:02:52;;;;;;;14.03;8.67;;;-1.90;99.90;;;-3.56;98.89;99490.34;4997729;28;20443;-79
2022/02/12 07:05:19;;;;;;;11.50;7.70;;;-1.90;99.90;;;-3.57;99.03;99491.25;4997747;28;20463;-79
2022/02/12 07:07:50;;;;;;;16.17;7.77;;;-1.90;99.90;;;-3.46;99.12;99495.94;5015354;28;20467;-78
2022/02/12 07:10:18;;;;;;;11.87;7.37;;;-1.80;99.90;;;-3.39;99.31;99492.00;5015569;28;20435;-78
2022/02/12 07:12:46;;;;;;;19.63;8.80;;;-1.70;99.90;;;-3.39;99.03;99488.50;4998703;28;20833;-82
2022/02/12 07:15:13;;;;;;;66.03;13.47;;;-1.70;99.90;;;-3.25;98.77;99485.03;5019684;28;20523;-87
2022/02/12 07:17:40;;;;;;;16.40;8.10;;;-1.60;99.90;;;-3.14;98.58;99490.53;5022955;28;20486;-88
2022/02/12 07:20:10;;;;;;;15.03;8.17;;;-1.50;99.90;;;-3.09;98.20;99492.91;5022153;28;20502;-84
2022/02/12 07:22:39;;;;;;;11.00;7.43;;;-1.40;99.90;;;-3.05;98.96;99497.91;5019238;28;20443;-86
2022/02/12 07:25:08;;;;;;;12.90;8.40;;;-1.40;99.90;;;-3.04;98.35;99494.31;5017896;28;20962;-80
2022/02/12 07:27:38;;;;;;;14.13;8.03;;;-1.40;99.90;;;-2.97;98.35;99486.03;4997765;28;20450;-85
2022/02/12 07:30:09;;;;;;;10.83;8.07;;;-1.30;99.90;;;-2.87;98.00;99498.59;4998510;28;20793;-83
2022/02/12 07:32:37;;;;;;;12.10;7.77;;;-1.20;99.90;;;-2.78;98.09;99493.72;5015670;28;20860;-86
2022/02/12 07:35:06;;;;;;;14.30;7.53;;;-1.20;99.90;;;-2.73;98.04;99494.25;5016243;28;20869;-89
2022/02/12 07:37:33;;;;;;;21.57;8.10;;;-1.10;99.90;;;-2.65;97.98;99496.44;5015203;28;20498;-85
2022/02/12 07:40:01;;;;;;;10.67;7.87;;;-1.00;99.90;;;-2.57;97.78;99495.03;5016331;28;20514;-84
2022/02/12 07:42:28;;;;;;;14.07;8.40;;;-1.00;99.90;;;-2.47;97.59;99495.28;4998011;28;20439;-86
2022/02/12 07:44:55;;;;;;;8.83;7.53;;;-0.90;99.90;;;-2.34;96.58;99490.09;4998108;28;20535;-86
2022/02/12 07:47:24;;;;;;;15.93;7.70;;;-0.80;99.90;;;-2.30;96.84;99493.38;4998418;28;20506;-83
2022/02/12 07:49:51;;;;;;;10.13;6.87;;;-0.70;99.90;;;-2.31;95.56;99484.59;5015653;28;20494;-81
2022/02/12 07:52:18;;;;;;;27.37;10.10;;;-0.60;99.90;;;-2.20;95.88;99491.00;5015362;28;20447;-78
2022/02/12 07:54:45;;;;;;;11.13;7.10;;;-0.60;99.90;;;-2.17;95.66;99490.81;5014978;28;20464;-77
2022/02/12 07:57:12;;;;;;;11.03;6.30;;;-0.50;99.90;;;-2.09;95.61;99490.34;5014329;28;20510;-77
2022/02/12 07:59:39;;;;;;;8.27;6.97;;;-0.50;99.90;;;-2.38;95.20;99417.09;4996701;28;20475;-72
2022/02/12 08:02:07;;;;;;;9.07;5.97;;;-0.40;99.90;;;-1.84;94.07;99486.94;5014598;28;20459;-81
2022/02/12 08:04:35;;;;;;;11.77;5.87;;;-0.30;99.90;;;-1.85;93.75;99485.25;5014455;28;20436;-81
2022/02/12 08:09:46;;;;;;;13.33;7.10;;;-0.30;97.90;;;-1.85;93.68;99480.78;5014855;28;20439;-82
2022/02/12 08:12:14;;;;;;;11.53;6.80;;;-0.30;97.40;;;-1.91;93.06;99462.66;5014924;28;20887;-81
2022/02/12 08:14:47;;;;;;;12.10;7.23;;;-0.20;96.30;;;-1.68;93.33;99484.13;4996270;28;20490;-81
2022/02/12 08:17:16;;;;;;;11.90;6.90;;;-0.10;97.30;;;-1.59;92.26;99472.09;5014535;28;20471;-81
2022/02/12 08:19:45;;;;;;;8.50;6.77;;;0.00;96.30;;;-1.53;91.46;99481.41;4996947;28;20443;-82
2022/02/12 08:22:13;;;;;;;26.77;8.17;;;0.10;95.10;;;-1.81;91.07;99417.84;4997391;28;20494;-84
2022/02/12 08:24:40;;;;;;;10.80;6.67;;;0.10;93.60;;;-1.41;90.54;99474.47;4997509;28;20443;-82
2022/02/12 08:27:09;;;;;;;11.00;7.10;;;0.20;92.50;;;-1.32;91.08;99476.47;4996584;28;20870;-82
2022/02/12 08:29:37;;;;;;;10.30;6.97;;;0.20;92.80;;;-1.29;90.42;99476.25;4996272;28;20441;-80
2022/02/12 08:32:05;;;;;;;11.30;7.10;;;0.30;92.30;;;-1.26;90.00;99475.22;5014102;28;20478;-83
2022/02/12 08:34:33;;;;;;;11.10;7.40;;;0.30;91.90;;;-1.13;90.53;99470.78;4996369;28;20463;-80
2022/02/12 08:37:02;;;;;;;9.20;6.63;;;0.40;92.70;;;-0.97;89.25;99465.28;5014034;28;20607;-80
2022/02/12 08:39:30;;;;;;;10.00;7.30;;;0.50;91.40;;;-0.87;89.18;99466.31;5027763;28;20450;-79
2022/02/12 08:41:56;;;;;;;8.70;6.47;;;0.60;91.40;;;-0.69;88.63;99467.81;5012793;28;20501;-81
2022/02/12 08:44:24;;;;;;;13.03;7.00;;;0.80;90.80;;;-0.68;87.29;99473.03;5022042;28;20453;-78
2022/02/12 08:46:51;;;;;;;11.03;6.47;;;0.90;89.30;;;-0.71;87.69;99462.59;5046161;28;20462;-79
2022/02/12 08:49:18;;;;;;;10.47;6.67;;;0.80;89.30;;;-0.88;87.55;99406.25;5031731;28;20466;-68
2022/02/12 08:51:45;;;;;;;16.60;6.20;;;0.90;90.20;;;-0.30;86.53;99453.50;5028190;28;20546;-81
2022/02/12 08:54:14;;;;;;;24.77;7.80;;;1.10;89.80;;;-0.33;85.52;99453.72;5026916;28;20471;-80
2022/02/12 08:56:43;;;;;;;14.03;8.03;;;1.20;87.30;;;-0.36;86.08;99461.91;5003202;28;20859;-79
2022/02/12 08:59:11;;;;;;;41.77;9.27;;;1.20;87.00;;;-0.29;85.42;99454.38;4997462;28;20432;-80
2022/02/12 09:01:40;;;;;;;24.37;7.67;;;1.30;85.80;;;-0.16;85.57;99459.63;5014741;28;20497;-81
2022/02/12 09:04:09;;;;;;;12.17;7.00;;;1.30;86.10;;;-0.14;85.61;99455.06;5016644;28;20479;-79
2022/02/12 09:06:37;;;;;;;8.03;5.33;;;1.40;86.10;;;0.05;84.66;99448.38;4999672;28;21050;-78
2022/02/12 09:09:08;;;;;;;30.43;9.80;;;1.50;85.70;;;0.05;84.94;99443.06;5000458;28;20850;-78
2022/02/12 09:11:38;;;;;;;29.93;8.53;;;1.60;85.00;;;0.06;84.74;99435.00;5033127;28;20435;-77
2022/02/12 09:14:07;;;;;;;12.90;7.80;;;1.60;84.50;;;0.09;85.49;99436.59;5017473;28;20467;-77
2022/02/12 09:16:34;;;;;;;17.40;6.23;;;1.70;85.50;;;0.19;84.40;99420.78;5017747;28;20447;-78
2022/02/12 09:19:02;;;;;;;14.07;5.83;;;1.80;84.30;;;0.36;83.83;99430.16;5018168;28;20478;-77
2022/02/12 09:21:29;;;;;;;10.30;6.07;;;1.90;83.50;;;0.40;83.52;99423.66;5015868;28;20494;-79
2022/02/12 09:23:55;;;;;;;10.10;5.90;;;1.90;83.30;;;0.63;82.76;99434.34;5017185;28;20860;-79
2022/02/12 09:26:27;;;;;;;10.83;6.30;;;2.10;82.70;;;0.60;82.95;99429.28;5016554;28;20482;-78
2022/02/12 09:28:55;;;;;;;6.30;5.70;;;2.20;82.20;;;0.71;82.73;99439.94;5017398;28;20435;-71
2022/02/12 09:31:22;;;;;;;11.03;7.10;;;2.20;82.10;;;1.00;81.50;99420.91;5017356;28;20526;-77
2022/02/12 09:33:49;;;;;;;9.63;5.37;;;2.40;81.50;;;1.02;80.74;99402.97;5017383;28;20493;-75
2022/02/12 09:36:16;;;;;;;9.30;5.63;;;2.60;80.80;;;1.26;80.43;99428.63;5017254;28;20455;-75
2022/02/12 09:38:43;;;;;;;8.10;3.97;;;2.70;80.30;;;1.39;79.51;99437.34;5017313;28;20514;-76
2022/02/12 09:41:14;;;;;;;9.83;5.37;;;2.80;79.30;;;1.62;79.06;99436.47;5018007;28;20462;-77
2022/02/12 09:43:43;;;;;;;5.47;4.40;;;2.90;79.10;;;1.64;78.25;99430.06;5016418;28;20530;-76
2022/02/12 09:46:43;;;;;;;14.83;5.23;;;3.10;78.40;;;1.76;77.92;99422.06;5018746;28;20447;-76
2022/02/12 09:49:10;;;;;;;9.60;4.13;;;3.20;78.20;;;1.67;77.55;99410.34;5018496;28;20453;-76
2022/02/12 09:51:41;;;;;;;5.60;3.83;;;3.20;77.40;;;1.85;77.51;99410.63;5000997;28;20526;-79
2022/02/12 09:54:09;;;;;;;4.70;3.83;;;3.30;77.30;;;1.80;76.78;99371.03;5007653;28;21039;-82
2022/02/12 09:56:37;;;;;;;3.93;3.33;;;3.50;77.20;;;2.04;76.05;99404.66;5019591;28;20891;-83
2022/02/12 09:59:04;;;;;;;10.60;3.43;;;3.50;76.30;;;2.22;75.34;99417.44;5019242;28;20505;-82
2022/02/12 10:01:32;;;;;;;6.23;3.30;;;3.60;75.60;;;1.84;74.87;99360.97;5020139;28;20427;-84
2022/02/12 10:03:59;;;;;;;4.33;3.17;;;3.70;75.30;;;2.34;74.38;99410.22;5018644;28;20713;-77
2022/02/12 10:06:41;;;;;;;4.77;3.70;;;3.80;75.10;;;2.31;75.08;99405.16;5000648;28;20474;-81
2022/02/12 10:09:09;;;;;;;5.33;3.30;;;3.80;75.20;;;2.53;73.03;99410.38;5034927;28;20478;-79
2022/02/12 10:11:42;;;;;;;6.90;4.07;;;3.90;74.20;;;2.57;73.52;99404.78;5018449;28;20435;-81
2022/02/12 10:14:12;;;;;;;5.53;3.40;;;4.00;74.40;;;2.79;72.06;99395.78;5018728;28;20466;-81
2022/02/12 10:16:58;;;;;;;3.10;2.80;;;4.10;73.80;;;2.82;71.84;99377.69;5021146;28;20477;-82
2022/02/12 10:19:32;;;;;;;5.77;3.43;;;4.30;73.20;;;2.97;71.86;99382.69;5020270;28;20442;-81
2022/02/12 10:22:09;;;;;;;5.03;3.60;;;4.30;73.10;;;3.02;71.18;99375.13;5005322;28;20950;-82
2022/02/12 10:24:53;;;;;;;7.07;4.53;;;4.40;72.80;;;3.03;71.82;99379.47;4989216;28;20509;-81
2022/02/12 10:27:23;;;;;;;8.87;4.17;;;4.40;72.60;;;2.98;70.51;99368.38;5022835;28;20526;-82
2022/02/12 10:29:52;;;;;;;6.13;4.17;;;4.50;72.10;;;2.97;71.28;99348.81;5022717;28;20431;-82